Time,TemperatureF,DewpointF,PressureIn,WindDirection,WindDirectionDegrees,WindSpeedMPH,WindSpeedGustMPH,Humidity,HourlyPrecipIn,Conditions,Clouds,dailyrainin,SoftwareType,DateUTC
2013-06-04 00:09:00,53.0,50.4,30.07,WNW,296,0.0,0.0,91,0.00,,,0.00,Wunderground v.1.15,2013-06-04 04:09:00,
2013-06-04 00:19:00,52.7,50.1,30.07,WNW,296,0.0,0.0,91,0.00,,,0.00,Wunderground v.1.15,2013-06-04 04:19:00,
2013-06-04 00:29:00,52.6,50.0,30.08,WNW,296,0.0,0.0,91,0.00,,,0.00,Wunderground v.1.15,2013-06-04 04:29:00,
2013-06-04 00:39:00,52.4,50.1,30.08,WNW,296,0.0,0.0,92,0.00,,,0.00,Wunderground v.1.15,2013-06-04 04:39:00,
2013-06-04 00:49:00,52.3,50.0,30.08,WNW,296,0.0,0.0,92,0.00,,,0.00,Wunderground v.1.15,2013-06-04 04:49:00,
2013-06-04 00:54:00,52.2,49.9,30.09,WNW,296,0.0,0.0,92,0.00,,,0.00,Wunderground v.1.15,2013-06-04 04:54:00,
2013-06-04 01:09:00,52.1,49.8,30.09,WNW,296,0.0,0.0,92,0.00,,,0.00,Wunderground v.1.15,2013-06-04 05:09:00,
2013-06-04 01:19:00,51.8,49.5,30.09,WNW,296,0.0,0.0,92,0.00,,,0.00,Wunderground v.1.15,2013-06-04 05:19:00,
2013-06-04 01:29:00,51.6,49.4,30.09,WNW,296,0.0,0.0,92,0.00,,,0.00,Wunderground v.1.15,2013-06-04 05:29:00,
2013-06-04 01:34:00,51.4,49.2,30.09,WNW,296,0.0,0.0,92,0.00,,,0.00,Wunderground v.1.15,2013-06-04 05:34:00,
2013-06-04 01:44:00,51.4,49.4,30.09,WNW,296,0.0,1.0,93,0.00,,,0.00,Wunderground v.1.15,2013-06-04 05:44:00,
2013-06-04 01:59:00,51.0,48.8,30.09,WNW,296,0.0,0.0,92,0.00,,,0.00,Wunderground v.1.15,2013-06-04 05:59:00,
2013-06-04 02:09:00,50.8,48.6,30.09,WNW,296,0.0,0.0,92,0.00,,,0.00,Wunderground v.1.15,2013-06-04 06:09:00,
2013-06-04 02:19:00,50.7,48.7,30.09,WNW,296,0.0,0.0,93,0.00,,,0.00,Wunderground v.1.15,2013-06-04 06:19:00,
2013-06-04 02:24:00,50.6,48.7,30.09,WNW,296,0.0,0.0,93,0.00,,,0.00,Wunderground v.1.15,2013-06-04 06:24:00,
2013-06-04 02:39:00,50.3,48.4,30.09,WNW,296,0.0,0.0,93,0.00,,,0.00,Wunderground v.1.15,2013-06-04 06:39:00,
2013-06-04 02:44:00,50.2,48.3,30.09,WNW,296,0.0,0.0,93,0.00,,,0.00,Wunderground v.1.15,2013-06-04 06:44:00,
2013-06-04 02:59:00,49.6,47.4,30.09,WNW,296,0.0,0.0,92,0.00,,,0.00,Wunderground v.1.15,2013-06-04 06:59:00,
2013-06-04 03:09:00,49.2,47.3,30.08,WNW,296,0.0,0.0,93,0.00,,,0.00,Wunderground v.1.15,2013-06-04 07:09:00,
2013-06-04 03:19:00,49.2,47.3,30.09,WNW,297,0.0,0.0,93,0.00,,,0.00,Wunderground v.1.15,2013-06-04 07:19:00,
2013-06-04 03:29:00,49.4,47.5,30.10,WNW,296,0.0,0.0,93,0.00,,,0.00,Wunderground v.1.15,2013-06-04 07:29:00,
2013-06-04 03:34:00,49.4,47.5,30.10,WNW,296,0.0,0.0,93,0.00,,,0.00,Wunderground v.1.15,2013-06-04 07:34:00,
2013-06-04 03:49:00,49.2,47.3,30.11,WNW,296,0.0,0.0,93,0.00,,,0.00,Wunderground v.1.15,2013-06-04 07:49:00,
2013-06-04 03:59:00,49.0,47.3,30.11,WNW,296,0.0,0.0,94,0.00,,,0.00,Wunderground v.1.15,2013-06-04 07:59:00,
2013-06-04 04:09:00,48.9,47.2,30.11,WNW,296,0.0,0.0,94,0.00,,,0.00,Wunderground v.1.15,2013-06-04 08:09:00,
2013-06-04 04:14:00,48.9,47.2,30.12,WNW,296,0.0,0.0,94,0.00,,,0.00,Wunderground v.1.15,2013-06-04 08:14:00,
2013-06-04 04:29:00,48.6,47.0,30.12,WNW,296,0.0,0.0,94,0.00,,,0.00,Wunderground v.1.15,2013-06-04 08:29:00,
2013-06-04 04:39:00,48.3,46.7,30.12,WNW,296,0.0,0.0,94,0.00,,,0.00,Wunderground v.1.15,2013-06-04 08:39:00,
2013-06-04 04:49:00,48.3,46.7,30.12,WNW,296,0.0,1.0,94,0.00,,,0.00,Wunderground v.1.15,2013-06-04 08:49:00,
2013-06-04 04:59:00,48.6,47.0,30.12,WNW,296,0.0,0.0,94,0.00,,,0.00,Wunderground v.1.15,2013-06-04 08:59:00,
2013-06-04 05:09:00,48.7,47.1,30.12,WNW,296,0.0,0.0,94,0.00,,,0.00,Wunderground v.1.15,2013-06-04 09:09:00,
2013-06-04 05:19:00,48.9,47.2,30.12,WNW,296,0.0,1.0,94,0.00,,,0.00,Wunderground v.1.15,2013-06-04 09:19:00,
2013-06-04 05:24:00,49.3,47.6,30.12,WNW,296,0.0,1.0,94,0.00,,,0.00,Wunderground v.1.15,2013-06-04 09:24:00,
2013-06-04 05:39:00,50.1,48.2,30.12,WNW,296,1.0,1.0,93,0.00,,,0.00,Wunderground v.1.15,2013-06-04 09:39:00,
2013-06-04 05:44:00,50.4,48.2,30.13,WNW,296,1.0,1.0,92,0.00,,,0.00,Wunderground v.1.15,2013-06-04 09:44:00,
2013-06-04 05:59:00,50.7,47.6,30.13,WNW,296,0.0,0.0,89,0.00,,,0.00,Wunderground v.1.15,2013-06-04 09:59:00,
2013-06-04 06:09:00,50.9,47.5,30.13,WNW,296,0.0,0.0,88,0.00,,,0.00,Wunderground v.1.15,2013-06-04 10:09:00,
2013-06-04 06:14:00,50.8,47.4,30.13,WNW,296,0.0,0.0,88,0.00,,,0.00,Wunderground v.1.15,2013-06-04 10:14:00,
2013-06-04 06:29:00,50.0,46.6,30.13,WNW,296,0.0,0.0,88,0.00,,,0.00,Wunderground v.1.15,2013-06-04 10:29:00,
2013-06-04 06:39:00,50.1,46.7,30.14,WNW,296,0.0,0.0,88,0.00,,,0.00,Wunderground v.1.15,2013-06-04 10:39:00,
2013-06-04 06:49:00,50.6,47.2,30.14,WNW,296,0.0,0.0,88,0.00,,,0.00,Wunderground v.1.15,2013-06-04 10:49:00,
2013-06-04 06:59:00,51.0,47.3,30.14,WNW,296,0.0,0.0,87,0.00,,,0.00,Wunderground v.1.15,2013-06-04 10:59:00,
2013-06-04 07:09:00,51.6,47.5,30.14,WNW,297,1.0,1.0,86,0.00,,,0.00,Wunderground v.1.15,2013-06-04 11:09:00,
2013-06-04 07:19:00,52.1,48.0,30.14,WNW,297,1.0,1.0,86,0.00,,,0.00,Wunderground v.1.15,2013-06-04 11:19:00,
2013-06-04 07:29:00,52.4,48.0,30.15,WNW,297,0.0,0.0,85,0.00,,,0.00,Wunderground v.1.15,2013-06-04 11:29:00,
2013-06-04 07:39:00,53.4,48.4,30.16,WNW,297,0.0,0.0,83,0.00,,,0.00,Wunderground v.1.15,2013-06-04 11:39:00,
2013-06-04 07:49:00,54.7,49.0,30.16,WNW,297,1.0,1.0,81,0.00,,,0.00,Wunderground v.1.15,2013-06-04 11:49:00,
2013-06-04 07:59:00,55.7,48.6,30.16,East,91,2.0,5.0,77,0.00,,,0.00,Wunderground v.1.15,2013-06-04 11:59:00,
2013-06-04 08:09:00,56.3,48.5,30.17,ENE,61,2.0,2.0,75,0.00,,,0.00,Wunderground v.1.15,2013-06-04 12:09:00,
2013-06-04 08:19:00,57.0,48.8,30.17,ENE,77,2.0,2.0,74,0.00,,,0.00,Wunderground v.1.15,2013-06-04 12:19:00,
2013-06-04 08:29:00,57.7,49.1,30.17,ENE,62,2.0,2.0,73,0.00,,,0.00,Wunderground v.1.15,2013-06-04 12:29:00,
2013-06-04 08:39:00,58.5,48.7,30.17,ENE,66,2.0,2.0,70,0.00,,,0.00,Wunderground v.1.15,2013-06-04 12:39:00,
2013-06-04 08:49:00,58.9,48.4,30.17,East,95,3.0,3.0,68,0.00,,,0.00,Wunderground v.1.15,2013-06-04 12:49:00,
2013-06-04 08:59:00,59.4,49.2,30.16,East,94,3.0,6.0,69,0.00,,,0.00,Wunderground v.1.15,2013-06-04 12:59:00,
2013-06-04 09:09:00,59.1,47.7,30.15,ESE,103,6.0,7.0,66,0.00,,,0.00,Wunderground v.1.15,2013-06-04 13:09:00,
2013-06-04 09:14:00,59.1,47.3,30.15,ESE,114,7.0,9.0,65,0.00,,,0.00,Wunderground v.1.15,2013-06-04 13:14:00,
2013-06-04 09:29:00,59.6,47.4,30.16,East,97,7.0,7.0,64,0.00,,,0.00,Wunderground v.1.15,2013-06-04 13:29:00,
2013-06-04 09:39:00,60.5,47.4,30.16,ESE,107,6.0,8.0,62,0.00,,,0.00,Wunderground v.1.15,2013-06-04 13:39:00,
2013-06-04 09:49:00,61.3,47.3,30.16,ESE,109,7.0,9.0,60,0.00,,,0.00,Wunderground v.1.15,2013-06-04 13:49:00,
2013-06-04 09:59:00,61.8,46.4,30.15,ESE,104,9.0,9.0,57,0.00,,,0.00,Wunderground v.1.15,2013-06-04 13:59:00,
2013-06-04 10:09:00,62.2,46.3,30.15,ESE,105,9.0,9.0,56,0.00,,,0.00,Wunderground v.1.15,2013-06-04 14:09:00,
2013-06-04 10:19:00,63.1,47.1,30.15,East,86,6.0,6.0,56,0.00,,,0.00,Wunderground v.1.15,2013-06-04 14:19:00,
2013-06-04 10:29:00,63.8,46.8,30.16,ESE,111,6.0,12.0,54,0.00,,,0.00,Wunderground v.1.15,2013-06-04 14:29:00,
2013-06-04 10:39:00,63.9,45.4,30.16,ENE,78,9.0,9.0,51,0.00,,,0.00,Wunderground v.1.15,2013-06-04 14:39:00,
2013-06-04 10:49:00,64.6,47.6,30.16,East,92,5.0,11.0,54,0.00,,,0.00,Wunderground v.1.15,2013-06-04 14:49:00,
2013-06-04 10:59:00,64.7,47.7,30.15,East,81,6.0,6.0,54,0.00,,,0.00,Wunderground v.1.15,2013-06-04 14:59:00,
2013-06-04 11:09:00,65.5,47.4,30.16,East,97,4.0,5.0,52,0.00,,,0.00,Wunderground v.1.15,2013-06-04 15:09:00,
2013-06-04 11:19:00,65.9,47.8,30.17,NE,56,5.0,5.0,52,0.00,,,0.00,Wunderground v.1.15,2013-06-04 15:19:00,
2013-06-04 11:29:00,65.5,47.4,30.16,ESE,103,8.0,8.0,52,0.00,,,0.00,Wunderground v.1.15,2013-06-04 15:29:00,
2013-06-04 11:39:00,65.6,46.5,30.16,ESE,116,9.0,9.0,50,0.00,,,0.00,Wunderground v.1.15,2013-06-04 15:39:00,
2013-06-04 11:49:00,65.9,48.3,30.15,ESE,103,7.0,10.0,53,0.00,,,0.00,Wunderground v.1.15,2013-06-04 15:49:00,
2013-06-04 11:59:00,66.4,48.2,30.15,NE,55,7.0,7.0,52,0.00,,,0.00,Wunderground v.1.15,2013-06-04 15:59:00,
2013-06-04 12:09:00,66.8,46.5,30.16,East,97,5.0,5.0,48,0.00,,,0.00,Wunderground v.1.15,2013-06-04 16:09:00,
2013-06-04 12:19:00,67.2,47.4,30.16,NE,56,4.0,5.0,49,0.00,,,0.00,Wunderground v.1.15,2013-06-04 16:19:00,
2013-06-04 12:29:00,67.4,48.1,30.16,East,86,4.0,4.0,50,0.00,,,0.00,Wunderground v.1.15,2013-06-04 16:29:00,
2013-06-04 12:39:00,67.8,48.5,30.16,East,90,4.0,4.0,50,0.00,,,0.00,Wunderground v.1.15,2013-06-04 16:39:00,
2013-06-04 12:49:00,68.2,48.3,30.16,ENE,68,4.0,4.0,49,0.00,,,0.00,Wunderground v.1.15,2013-06-04 16:49:00,
2013-06-04 12:59:00,68.6,49.2,30.15,ESE,116,3.0,3.0,50,0.00,,,0.00,Wunderground v.1.15,2013-06-04 16:59:00,
2013-06-04 13:09:00,68.5,49.7,30.15,East,90,6.0,6.0,51,0.00,,,0.00,Wunderground v.1.15,2013-06-04 17:09:00,
2013-06-04 13:19:00,68.6,48.1,30.15,NE,40,5.0,5.0,48,0.00,,,0.00,Wunderground v.1.15,2013-06-04 17:19:00,
2013-06-04 13:29:00,68.7,47.1,30.14,ESE,115,7.0,10.0,46,0.00,,,0.00,Wunderground v.1.15,2013-06-04 17:29:00,
2013-06-04 13:34:00,68.6,49.2,30.14,ESE,104,6.0,10.0,50,0.00,,,0.00,Wunderground v.1.15,2013-06-04 17:34:00,
2013-06-04 13:49:00,69.5,49.5,30.14,ESE,102,7.0,10.0,49,0.00,,,0.00,Wunderground v.1.15,2013-06-04 17:49:00,
2013-06-04 13:59:00,69.4,45.9,30.13,NNE,18,6.0,6.0,43,0.00,,,0.00,Wunderground v.1.15,2013-06-04 17:59:00,
2013-06-04 14:09:00,69.4,45.9,30.13,ESE,105,6.0,7.0,43,0.00,,,0.00,Wunderground v.1.15,2013-06-04 18:09:00,
2013-06-04 14:19:00,70.1,46.6,30.12,ESE,110,6.0,6.0,43,0.00,,,0.00,Wunderground v.1.15,2013-06-04 18:19:00,
2013-06-04 14:29:00,70.4,46.2,30.12,ESE,112,5.0,8.0,42,0.00,,,0.00,Wunderground v.1.15,2013-06-04 18:29:00,
2013-06-04 14:39:00,70.5,46.3,30.12,SE,124,8.0,8.0,42,0.00,,,0.00,Wunderground v.1.15,2013-06-04 18:39:00,
2013-06-04 14:49:00,71.0,46.1,30.12,East,82,5.0,5.0,41,0.00,,,0.00,Wunderground v.1.15,2013-06-04 18:49:00,
2013-06-04 14:59:00,71.3,45.7,30.12,ESE,110,3.0,8.0,40,0.00,,,0.00,Wunderground v.1.15,2013-06-04 18:59:00,
2013-06-04 15:09:00,71.0,44.8,30.11,ENE,59,9.0,9.0,39,0.00,,,0.00,Wunderground v.1.15,2013-06-04 19:09:00,
2013-06-04 15:19:00,71.3,45.1,30.11,ESE,111,5.0,7.0,39,0.00,,,0.00,Wunderground v.1.15,2013-06-04 19:19:00,
2013-06-04 15:29:00,71.2,44.3,30.11,ENE,64,6.0,6.0,38,0.00,,,0.00,Wunderground v.1.15,2013-06-04 19:29:00,
2013-06-04 15:39:00,71.6,42.5,30.11,East,88,4.0,4.0,35,0.00,,,0.00,Wunderground v.1.15,2013-06-04 19:39:00,
2013-06-04 15:44:00,71.8,41.9,30.11,ESE,109,5.0,7.0,34,0.00,,,0.00,Wunderground v.1.15,2013-06-04 19:44:00,
2013-06-04 15:59:00,71.9,43.5,30.11,ESE,119,8.0,8.0,36,0.00,,,0.00,Wunderground v.1.15,2013-06-04 19:59:00,
2013-06-04 16:09:00,72.3,42.3,30.12,East,94,4.0,6.0,34,0.00,,,0.00,Wunderground v.1.15,2013-06-04 20:09:00,
2013-06-04 16:19:00,72.3,43.8,30.11,East,87,4.0,4.0,36,0.00,,,0.00,Wunderground v.1.15,2013-06-04 20:19:00,
2013-06-04 16:29:00,72.4,42.4,30.11,SE,130,4.0,4.0,34,0.00,,,0.00,Wunderground v.1.15,2013-06-04 20:29:00,
2013-06-04 16:39:00,72.6,43.4,30.12,ESE,104,4.0,4.0,35,0.00,,,0.00,Wunderground v.1.15,2013-06-04 20:39:00,
2013-06-04 16:49:00,72.8,43.5,30.11,ENE,61,5.0,5.0,35,0.00,,,0.00,Wunderground v.1.15,2013-06-04 20:49:00,
2013-06-04 16:59:00,72.5,42.5,30.11,East,92,5.0,5.0,34,0.00,,,0.00,Wunderground v.1.15,2013-06-04 20:59:00,
2013-06-04 17:09:00,72.7,44.2,30.10,ESE,115,4.0,7.0,36,0.00,,,0.00,Wunderground v.1.15,2013-06-04 21:09:00,
2013-06-04 17:19:00,72.9,42.9,30.10,NE,42,5.0,5.0,34,0.00,,,0.00,Wunderground v.1.15,2013-06-04 21:19:00,
2013-06-04 17:29:00,72.7,43.5,30.10,ESE,104,6.0,6.0,35,0.00,,,0.00,Wunderground v.1.15,2013-06-04 21:29:00,
2013-06-04 17:39:00,72.2,44.5,30.10,East,98,6.0,6.0,37,0.00,,,0.00,Wunderground v.1.15,2013-06-04 21:39:00,
2013-06-04 17:49:00,72.2,43.0,30.10,ENE,70,4.0,4.0,35,0.00,,,0.00,Wunderground v.1.15,2013-06-04 21:49:00,
2013-06-04 17:59:00,72.5,43.3,30.10,ESE,110,3.0,5.0,35,0.00,,,0.00,Wunderground v.1.15,2013-06-04 21:59:00,
2013-06-04 18:09:00,72.2,44.5,30.10,East,86,5.0,7.0,37,0.00,,,0.00,Wunderground v.1.15,2013-06-04 22:09:00,
2013-06-04 18:14:00,71.9,44.2,30.10,East,79,6.0,7.0,37,0.00,,,0.00,Wunderground v.1.15,2013-06-04 22:14:00,
2013-06-04 18:29:00,72.2,44.5,30.10,East,92,4.0,5.0,37,0.00,,,0.00,Wunderground v.1.15,2013-06-04 22:29:00,
2013-06-04 18:39:00,72.4,46.0,30.09,ESE,105,6.0,6.0,39,0.00,,,0.00,Wunderground v.1.15,2013-06-04 22:39:00,
2013-06-04 18:49:00,72.2,44.5,30.09,East,93,4.0,5.0,37,0.00,,,0.00,Wunderground v.1.15,2013-06-04 22:49:00,
2013-06-04 18:59:00,71.5,43.8,30.09,ESE,109,4.0,7.0,37,0.00,,,0.00,Wunderground v.1.15,2013-06-04 22:59:00,
2013-06-04 19:09:00,71.3,45.7,30.08,ESE,106,4.0,4.0,40,0.00,,,0.00,Wunderground v.1.15,2013-06-04 23:09:00,
2013-06-04 19:19:00,71.0,45.5,30.08,East,93,5.0,5.0,40,0.00,,,0.00,Wunderground v.1.15,2013-06-04 23:19:00,
2013-06-04 19:29:00,70.6,47.0,30.08,East,94,3.0,3.0,43,0.00,,,0.00,Wunderground v.1.15,2013-06-04 23:29:00,
2013-06-04 19:39:00,70.3,45.5,30.08,East,94,2.0,2.0,41,0.00,,,0.00,Wunderground v.1.15,2013-06-04 23:39:00,
2013-06-04 19:49:00,70.5,46.3,30.08,East,94,1.0,1.0,42,0.00,,,0.00,Wunderground v.1.15,2013-06-04 23:49:00,
2013-06-04 19:59:00,70.6,45.1,30.08,East,94,0.0,1.0,40,0.00,,,0.00,Wunderground v.1.15,2013-06-04 23:59:00,
2013-06-04 20:09:00,70.4,46.2,30.08,East,94,0.0,0.0,42,0.00,,,0.00,Wunderground v.1.15,2013-06-05 00:09:00,
2013-06-04 20:19:00,69.6,48.5,30.08,East,94,0.0,0.0,47,0.00,,,0.00,Wunderground v.1.15,2013-06-05 00:19:00,
2013-06-04 20:24:00,69.1,47.4,30.08,East,94,0.0,0.0,46,0.00,,,0.00,Wunderground v.1.15,2013-06-05 00:24:00,
2013-06-04 20:39:00,67.9,48.6,30.08,East,94,0.0,0.0,50,0.00,,,0.00,Wunderground v.1.15,2013-06-05 00:39:00,
2013-06-04 20:49:00,66.7,49.5,30.08,East,94,0.0,0.0,54,0.00,,,0.00,Wunderground v.1.15,2013-06-05 00:49:00,
2013-06-04 20:59:00,65.4,48.3,30.08,East,94,0.0,0.0,54,0.00,,,0.00,Wunderground v.1.15,2013-06-05 00:59:00,
2013-06-04 21:04:00,64.9,48.3,30.08,East,94,0.0,0.0,55,0.00,,,0.00,Wunderground v.1.15,2013-06-05 01:04:00,
2013-06-04 21:19:00,63.7,49.5,30.08,East,94,0.0,0.0,60,0.00,,,0.00,Wunderground v.1.15,2013-06-05 01:19:00,
2013-06-04 21:29:00,63.1,49.0,30.08,East,94,0.0,0.0,60,0.00,,,0.00,Wunderground v.1.15,2013-06-05 01:29:00,
2013-06-04 21:39:00,63.4,46.9,30.08,East,94,0.0,0.0,55,0.00,,,0.00,Wunderground v.1.15,2013-06-05 01:39:00,
2013-06-04 21:49:00,64.2,49.1,30.09,East,94,0.0,0.0,58,0.00,,,0.00,Wunderground v.1.15,2013-06-05 01:49:00,
2013-06-04 21:59:00,64.1,46.6,30.08,East,94,0.0,0.0,53,0.00,,,0.00,Wunderground v.1.15,2013-06-05 01:59:00,
2013-06-04 22:09:00,64.1,48.1,30.09,East,94,0.0,0.0,56,0.00,,,0.00,Wunderground v.1.15,2013-06-05 02:09:00,
2013-06-04 22:20:00,63.7,48.2,30.09,East,94,0.0,0.0,57,0.00,,,0.00,Wunderground v.1.15,2013-06-05 02:20:00,
2013-06-04 22:30:00,63.0,47.5,30.09,East,94,0.0,0.0,57,0.00,,,0.00,Wunderground v.1.15,2013-06-05 02:30:00,
2013-06-04 22:40:00,62.4,47.4,30.10,East,94,0.0,0.0,58,0.00,,,0.00,Wunderground v.1.15,2013-06-05 02:40:00,
2013-06-04 22:50:00,62.5,46.6,30.09,East,94,0.0,0.0,56,0.00,,,0.00,Wunderground v.1.15,2013-06-05 02:50:00,
2013-06-04 23:00:00,62.9,47.0,30.09,East,94,0.0,0.0,56,0.00,,,0.00,Wunderground v.1.15,2013-06-05 03:00:00,
2013-06-04 23:10:00,63.1,46.7,30.10,East,94,0.0,0.0,55,0.00,,,0.00,Wunderground v.1.15,2013-06-05 03:10:00,
2013-06-04 23:20:00,63.1,46.7,30.10,East,94,0.0,1.0,55,0.00,,,0.00,Wunderground v.1.15,2013-06-05 03:20:00,
2013-06-04 23:31:00,63.4,46.9,30.10,East,82,1.0,1.0,55,0.00,,,0.00,Wunderground v.1.15,2013-06-05 03:31:00,
2013-06-04 23:40:00,63.1,46.7,30.10,East,82,0.0,0.0,55,0.00,,,0.00,Wunderground v.1.15,2013-06-05 03:40:00,
2013-06-04 23:50:00,62.9,47.0,30.10,East,82,0.0,0.0,56,0.00,,,0.00,Wunderground v.1.15,2013-06-05 03:50:00,